sensor_id;sensor_type;location;lat;lon;timestamp;pressure;altitude;pressure_sealevel;temperature;humidity
24610;BME280;12758;47.890;11.694;2023-04-01T00:02:09;92728.16;;;6.71;100.00
24610;BME280;12758;47.890;11.694;2023-04-01T00:04:38;92708.78;;;6.57;100.00
24610;BME280;12758;47.890;11.694;2023-04-01T00:07:04;92718.66;;;6.52;100.00
24610;BME280;12758;47.890;11.694;2023-04-01T00:09:33;92701.09;;;6.46;100.00
24610;BME280;12758;47.890;11.694;2023-04-01T00:12:04;92697.16;;;6.77;100.00
24610;BME280;12758;47.890;11.694;2023-04-01T00:14:30;92698.19;;;6.51;100.00
24610;BME280;12758;47.890;11.694;2023-04-01T00:16:56;92694.34;;;6.73;100.00
24610;BME280;12758;47.890;11.694;2023-04-01T00:19:25;92702.38;;;6.94;100.00
24610;BME280;12758;47.890;11.694;2023-04-01T00:21:54;92704.81;;;6.54;100.00
24610;BME280;12758;47.890;11.694;2023-04-01T00:24:20;92695.47;;;6.51;100.00
24610;BME280;12758;47.890;11.694;2023-04-01T00:26:49;92687.66;;;6.04;100.00
24610;BME280;12758;47.890;11.694;2023-04-01T00:29:15;92669.03;;;6.12;100.00
24610;BME280;12758;47.890;11.694;2023-04-01T00:31:44;92659.75;;;6.42;100.00
24610;BME280;12758;47.890;11.694;2023-04-01T00:34:10;92652.41;;;6.64;100.00
24610;BME280;12758;47.890;11.694;2023-04-01T00:36:37;92655.34;;;6.71;100.00
24610;BME280;12758;47.890;11.694;2023-04-01T00:39:03;92647.47;;;6.66;100.00
24610;BME280;12758;47.890;11.694;2023-04-01T00:41:32;92642.00;;;6.87;100.00
24610;BME280;12758;47.890;11.694;2023-04-01T00:44:20;92645.38;;;6.96;100.00
24610;BME280;12758;47.890;11.694;2023-04-01T00:46:49;92637.88;;;7.02;100.00
24610;BME280;12758;47.890;11.694;2023-04-01T00:49:16;92633.06;;;7.07;100.00
24610;BME280;12758;47.890;11.694;2023-04-01T00:51:47;92626.53;;;7.08;100.00
24610;BME280;12758;47.890;11.694;2023-04-01T00:54:14;92626.19;;;7.22;100.00
24610;BME280;12758;47.890;11.694;2023-04-01T00:56:45;92628.22;;;7.13;100.00
24610;BME280;12758;47.890;11.694;2023-04-01T00:59:16;92625.28;;;7.18;100.00
24610;BME280;12758;47.890;11.694;2023-04-01T01:01:48;92637.31;;;7.08;100.00
24610;BME280;12758;47.890;11.694;2023-04-01T01:04:24;92635.09;;;7.22;100.00
24610;BME280;12758;47.890;11.694;2023-04-01T01:07:03;92638.34;;;7.16;100.00
24610;BME280;12758;47.890;11.694;2023-04-01T01:09:37;92631.34;;;7.15;100.00
24610;BME280;12758;47.890;11.694;2023-04-01T01:12:12;92629.78;;;7.02;100.00
24610;BME280;12758;47.890;11.694;2023-04-01T01:14:45;92633.16;;;6.98;100.00
24610;BME280;12758;47.890;11.694;2023-04-01T01:17:22;92639.09;;;6.92;100.00
24610;BME280;12758;47.890;11.694;2023-04-01T01:20:10;92620.50;;;6.66;100.00
24610;BME280;12758;47.890;11.694;2023-04-01T01:23:02;92608.84;;;6.86;100.00
24610;BME280;12758;47.890;11.694;2023-04-01T01:25:40;92617.78;;;6.53;100.00
24610;BME280;12758;47.890;11.694;2023-04-01T01:28:25;92611.06;;;6.60;100.00
24610;BME280;12758;47.890;11.694;2023-04-01T01:30:57;92609.41;;;6.80;100.00
24610;BME280;12758;47.890;11.694;2023-04-01T01:33:54;92610.63;;;6.70;100.00
24610;BME280;12758;47.890;11.694;2023-04-01T01:36:25;92623.16;;;6.53;100.00
24610;BME280;12758;47.890;11.694;2023-04-01T01:38:54;92618.69;;;6.58;100.00
24610;BME280;12758;47.890;11.694;2023-04-01T01:41:21;92626.59;;;6.75;100.00
24610;BME280;12758;47.890;11.694;2023-04-01T01:43:51;92624.81;;;6.79;100.00
24610;BME280;12758;47.890;11.694;2023-04-01T01:46:20;92625.50;;;6.43;100.00
24610;BME280;12758;47.890;11.694;2023-04-01T01:48:51;92629.88;;;6.47;100.00
24610;BME280;12758;47.890;11.694;2023-04-01T01:51:18;92624.38;;;6.44;100.00
24610;BME280;12758;47.890;11.694;2023-04-01T01:53:48;92620.28;;;6.59;100.00
24610;BME280;12758;47.890;11.694;2023-04-01T01:56:14;92614.00;;;6.67;100.00
24610;BME280;12758;47.890;11.694;2023-04-01T01:58:47;92608.41;;;6.72;100.00
24610;BME280;12758;47.890;11.694;2023-04-01T02:01:16;92613.56;;;6.65;100.00
24610;BME280;12758;47.890;11.694;2023-04-01T02:03:46;92616.53;;;6.51;100.00
24610;BME280;12758;47.890;11.694;2023-04-01T02:06:15;92616.69;;;6.67;100.00
24610;BME280;12758;47.890;11.694;2023-04-01T02:08:47;92628.53;;;6.41;100.00
24610;BME280;12758;47.890;11.694;2023-04-01T02:11:17;92629.00;;;6.43;100.00
24610;BME280;12758;47.890;11.694;2023-04-01T02:13:50;92635.03;;;6.40;100.00
24610;BME280;12758;47.890;11.694;2023-04-01T02:16:19;92629.66;;;6.40;100.00
24610;BME280;12758;47.890;11.694;2023-04-01T02:18:50;92633.88;;;6.29;100.00
24610;BME280;12758;47.890;11.694;2023-04-01T02:21:18;92633.97;;;6.53;100.00
24610;BME280;12758;47.890;11.694;2023-04-01T02:23:49;92641.19;;;6.62;100.00
24610;BME280;12758;47.890;11.694;2023-04-01T02:26:19;92643.59;;;6.42;100.00
24610;BME280;12758;47.890;11.694;2023-04-01T02:28:49;92645.56;;;6.33;100.00
24610;BME280;12758;47.890;11.694;2023-04-01T02:31:19;92645.81;;;6.40;100.00
24610;BME280;12758;47.890;11.694;2023-04-01T02:33:46;92642.53;;;6.35;100.00
24610;BME280;12758;47.890;11.694;2023-04-01T02:36:16;92647.38;;;6.41;100.00
24610;BME280;12758;47.890;11.694;2023-04-01T02:38:43;92644.28;;;6.51;100.00
24610;BME280;12758;47.890;11.694;2023-04-01T02:41:13;92649.66;;;6.51;100.00
24610;BME280;12758;47.890;11.694;2023-04-01T02:43:40;92650.66;;;6.47;100.00
24610;BME280;12758;47.890;11.694;2023-04-01T02:46:09;92653.94;;;6.52;100.00
24610;BME280;12758;47.890;11.694;2023-04-01T02:48:35;92654.63;;;6.49;100.00
24610;BME280;12758;47.890;11.694;2023-04-01T02:51:04;92654.16;;;6.47;100.00
24610;BME280;12758;47.890;11.694;2023-04-01T02:53:31;92663.84;;;6.61;100.00
24610;BME280;12758;47.890;11.694;2023-04-01T02:56:00;92661.16;;;6.61;100.00
24610;BME280;12758;47.890;11.694;2023-04-01T02:58:26;92665.22;;;6.67;100.00
24610;BME280;12758;47.890;11.694;2023-04-01T03:00:55;92668.63;;;6.76;100.00
24610;BME280;12758;47.890;11.694;2023-04-01T03:03:22;92673.91;;;6.51;100.00
24610;BME280;12758;47.890;11.694;2023-04-01T03:05:51;92671.69;;;6.53;100.00
24610;BME280;12758;47.890;11.694;2023-04-01T03:08:17;92671.69;;;6.53;100.00
24610;BME280;12758;47.890;11.694;2023-04-01T03:10:46;92674.25;;;6.50;100.00
24610;BME280;12758;47.890;11.694;2023-04-01T03:13:12;92662.91;;;6.44;100.00
24610;BME280;12758;47.890;11.694;2023-04-01T03:15:41;92656.41;;;6.58;100.00
24610;BME280;12758;47.890;11.694;2023-04-01T03:18:11;92672.09;;;6.43;100.00
24610;BME280;12758;47.890;11.694;2023-04-01T03:20:40;92662.13;;;6.44;100.00
24610;BME280;12758;47.890;11.694;2023-04-01T03:23:10;92656.88;;;6.60;100.00
24610;BME280;12758;47.890;11.694;2023-04-01T03:25:39;92656.19;;;6.50;100.00
24610;BME280;12758;47.890;11.694;2023-04-01T03:28:08;92666.47;;;6.36;100.00
24610;BME280;12758;47.890;11.694;2023-04-01T03:30:34;92664.69;;;6.40;100.00
24610;BME280;12758;47.890;11.694;2023-04-01T03:33:00;92671.31;;;6.43;100.00
24610;BME280;12758;47.890;11.694;2023-04-01T03:35:27;92678.34;;;6.35;100.00
24610;BME280;12758;47.890;11.694;2023-04-01T03:37:56;92669.34;;;6.31;100.00
24610;BME280;12758;47.890;11.694;2023-04-01T03:40:22;92677.09;;;6.53;100.00
24610;BME280;12758;47.890;11.694;2023-04-01T03:42:51;92680.38;;;6.38;100.00
24610;BME280;12758;47.890;11.694;2023-04-01T03:45:18;92680.91;;;6.52;100.00
24610;BME280;12758;47.890;11.694;2023-04-01T03:47:47;92678.81;;;6.37;100.00
24610;BME280;12758;47.890;11.694;2023-04-01T03:50:13;92675.66;;;6.35;100.00
24610;BME280;12758;47.890;11.694;2023-04-01T03:52:42;92678.69;;;6.13;100.00
24610;BME280;12758;47.890;11.694;2023-04-01T03:55:08;92679.16;;;6.15;100.00
24610;BME280;12758;47.890;11.694;2023-04-01T03:57:37;92674.88;;;6.35;100.00
24610;BME280;12758;47.890;11.694;2023-04-01T04:00:04;92680.00;;;6.27;100.00
24610;BME280;12758;47.890;11.694;2023-04-01T04:02:34;92670.97;;;6.44;100.00
24610;BME280;12758;47.890;11.694;2023-04-01T04:05:00;92681.44;;;6.25;100.00
24610;BME280;12758;47.890;11.694;2023-04-01T04:07:30;92682.97;;;6.14;100.00
24610;BME280;12758;47.890;11.694;2023-04-01T04:09:56;92679.22;;;6.06;100.00
24610;BME280;12758;47.890;11.694;2023-04-01T04:12:25;92680.88;;;5.98;100.00
24610;BME280;12758;47.890;11.694;2023-04-01T04:14:51;92679.94;;;6.36;100.00
24610;BME280;12758;47.890;11.694;2023-04-01T04:17:20;92676.34;;;6.11;100.00
24610;BME280;12758;47.890;11.694;2023-04-01T04:19:49;92675.50;;;5.98;100.00
24610;BME280;12758;47.890;11.694;2023-04-01T04:22:18;92690.66;;;6.24;100.00
24610;BME280;12758;47.890;11.694;2023-04-01T04:24:44;92679.22;;;6.27;100.00
24610;BME280;12758;47.890;11.694;2023-04-01T04:27:14;92685.34;;;6.36;100.00
24610;BME280;12758;47.890;11.694;2023-04-01T04:29:43;92683.84;;;6.26;100.00
24610;BME280;12758;47.890;11.694;2023-04-01T04:32:09;92686.44;;;6.35;100.00
24610;BME280;12758;47.890;11.694;2023-04-01T04:34:38;92684.25;;;6.49;100.00
24610;BME280;12758;47.890;11.694;2023-04-01T04:37:04;92692.09;;;6.42;100.00
24610;BME280;12758;47.890;11.694;2023-04-01T04:39:33;92701.28;;;6.41;100.00
24610;BME280;12758;47.890;11.694;2023-04-01T04:41:59;92698.03;;;6.36;100.00
24610;BME280;12758;47.890;11.694;2023-04-01T04:44:29;92702.66;;;6.47;100.00
24610;BME280;12758;47.890;11.694;2023-04-01T04:46:55;92707.47;;;6.42;100.00
24610;BME280;12758;47.890;11.694;2023-04-01T04:49:24;92707.22;;;6.35;100.00
24610;BME280;12758;47.890;11.694;2023-04-01T04:51:50;92690.25;;;6.34;100.00
24610;BME280;12758;47.890;11.694;2023-04-01T04:54:18;92692.09;;;6.42;100.00
24610;BME280;12758;47.890;11.694;2023-04-01T04:56:45;92702.34;;;6.49;100.00
24610;BME280;12758;47.890;11.694;2023-04-01T04:59:14;92698.06;;;6.48;100.00
24610;BME280;12758;47.890;11.694;2023-04-01T05:01:40;92694.56;;;6.47;100.00
24610;BME280;12758;47.890;11.694;2023-04-01T05:04:09;92698.22;;;6.64;100.00
24610;BME280;12758;47.890;11.694;2023-04-01T05:06:35;92700.09;;;6.51;100.00
24610;BME280;12758;47.890;11.694;2023-04-01T05:09:05;92699.06;;;6.43;100.00
24610;BME280;12758;47.890;11.694;2023-04-01T05:11:31;92704.69;;;6.50;100.00
24610;BME280;12758;47.890;11.694;2023-04-01T05:14:00;92700.84;;;6.39;100.00
24610;BME280;12758;47.890;11.694;2023-04-01T05:16:26;92697.69;;;6.37;100.00
24610;BME280;12758;47.890;11.694;2023-04-01T05:18:55;92697.63;;;6.25;100.00
24610;BME280;12758;47.890;11.694;2023-04-01T05:21:25;92707.88;;;6.32;100.00
24610;BME280;12758;47.890;11.694;2023-04-01T05:23:51;92706.00;;;6.44;100.00
24610;BME280;12758;47.890;11.694;2023-04-01T05:26:17;92700.00;;;6.26;100.00
24610;BME280;12758;47.890;11.694;2023-04-01T05:28:43;92710.50;;;6.40;100.00
24610;BME280;12758;47.890;11.694;2023-04-01T05:31:12;92706.94;;;6.48;100.00
24610;BME280;12758;47.890;11.694;2023-04-01T05:33:38;92710.75;;;6.47;100.00
24610;BME280;12758;47.890;11.694;2023-04-01T05:36:09;92712.06;;;6.41;100.00
24610;BME280;12758;47.890;11.694;2023-04-01T05:38:35;92709.19;;;6.46;100.00
24610;BME280;12758;47.890;11.694;2023-04-01T05:41:04;92704.94;;;6.58;100.00
24610;BME280;12758;47.890;11.694;2023-04-01T05:43:31;92709.63;;;6.48;100.00
24610;BME280;12758;47.890;11.694;2023-04-01T05:46:00;92719.31;;;6.49;100.00
24610;BME280;12758;47.890;11.694;2023-04-01T05:48:26;92708.78;;;6.57;100.00
24610;BME280;12758;47.890;11.694;2023-04-01T05:50:55;92711.50;;;6.69;100.00
24610;BME280;12758;47.890;11.694;2023-04-01T05:53:22;92714.16;;;6.57;100.00
24610;BME280;12758;47.890;11.694;2023-04-01T05:55:51;92708.31;;;6.54;100.00
24610;BME280;12758;47.890;11.694;2023-04-01T05:58:17;92706.41;;;6.55;100.00
24610;BME280;12758;47.890;11.694;2023-04-01T06:00:46;92718.91;;;6.60;100.00
24610;BME280;12758;47.890;11.694;2023-04-01T06:03:12;92711.16;;;6.58;100.00
24610;BME280;12758;47.890;11.694;2023-04-01T06:05:42;92714.16;;;6.57;100.00
24610;BME280;12758;47.890;11.694;2023-04-01T06:08:12;92710.34;;;6.58;100.00
24610;BME280;12758;47.890;11.694;2023-04-01T06:11:05;92711.03;;;6.67;100.00
24610;BME280;12758;47.890;11.694;2023-04-01T06:13:46;92708.34;;;6.67;100.00
24610;BME280;12758;47.890;11.694;2023-04-01T06:16:22;92703.19;;;6.62;100.00
24610;BME280;12758;47.890;11.694;2023-04-01T06:18:56;92694.56;;;6.68;100.00
24610;BME280;12758;47.890;11.694;2023-04-01T06:21:48;92707.75;;;6.82;100.00
24610;BME280;12758;47.890;11.694;2023-04-01T06:24:27;92700.78;;;6.81;100.00
24610;BME280;12758;47.890;11.694;2023-04-01T06:27:00;92694.78;;;6.75;100.00
24610;BME280;12758;47.890;11.694;2023-04-01T06:29:58;92698.81;;;6.69;100.00
24610;BME280;12758;47.890;11.694;2023-04-01T06:32:43;92712.22;;;6.78;100.00
24610;BME280;12758;47.890;11.694;2023-04-01T06:35:20;92697.56;;;6.67;100.00
24610;BME280;12758;47.890;11.694;2023-04-01T06:38:21;92707.03;;;6.73;100.00
24610;BME280;12758;47.890;11.694;2023-04-01T06:41:16;92700.19;;;6.75;100.00
24610;BME280;12758;47.890;11.694;2023-04-01T06:43:53;92695.59;;;6.76;100.00
24610;BME280;12758;47.890;11.694;2023-04-01T06:46:31;92688.06;;;6.82;100.00
24610;BME280;12758;47.890;11.694;2023-04-01T06:49:13;92703.47;;;6.81;100.00
24610;BME280;12758;47.890;11.694;2023-04-01T06:51:48;92685.97;;;6.87;100.00
24610;BME280;12758;47.890;11.694;2023-04-01T06:54:21;92687.75;;;6.95;100.00
24610;BME280;12758;47.890;11.694;2023-04-01T06:56:54;92675.16;;;6.99;100.00
24610;BME280;12758;47.890;11.694;2023-04-01T06:59:26;92688.25;;;7.10;100.00
24610;BME280;12758;47.890;11.694;2023-04-01T07:01:58;92683.97;;;7.09;100.00
24610;BME280;12758;47.890;11.694;2023-04-01T07:04:26;92692.09;;;7.21;100.00
24610;BME280;12758;47.890;11.694;2023-04-01T07:06:59;92694.78;;;7.21;100.00
24610;BME280;12758;47.890;11.694;2023-04-01T07:09:28;92694.88;;;7.12;100.00
24610;BME280;12758;47.890;11.694;2023-04-01T07:12:01;92701.50;;;7.15;100.00
24610;BME280;12758;47.890;11.694;2023-04-01T07:14:33;92706.41;;;7.46;100.00
24610;BME280;12758;47.890;11.694;2023-04-01T07:17:05;92703.78;;;7.37;100.00
24610;BME280;12758;47.890;11.694;2023-04-01T07:19:35;92703.78;;;7.37;100.00
24610;BME280;12758;47.890;11.694;2023-04-01T07:22:15;92706.94;;;7.39;100.00
24610;BME280;12758;47.890;11.694;2023-04-01T07:24:48;92719.44;;;7.44;100.00
24610;BME280;12758;47.890;11.694;2023-04-01T07:27:14;92729.66;;;7.51;100.00
24610;BME280;12758;47.890;11.694;2023-04-01T07:29:44;92714.41;;;7.55;100.00
24610;BME280;12758;47.890;11.694;2023-04-01T07:32:20;92726.53;;;7.49;100.00
24610;BME280;12758;47.890;11.694;2023-04-01T07:34:57;92717.97;;;7.46;100.00
24610;BME280;12758;47.890;11.694;2023-04-01T07:37:30;92723.38;;;7.46;100.00
24610;BME280;12758;47.890;11.694;2023-04-01T07:40:04;92722.25;;;7.47;100.00
24610;BME280;12758;47.890;11.694;2023-04-01T07:42:43;92725.59;;;7.44;100.00
24610;BME280;12758;47.890;11.694;2023-04-01T07:45:19;92729.56;;;7.47;100.00
24610;BME280;12758;47.890;11.694;2023-04-01T07:48:06;92722.16;;;7.56;100.00
24610;BME280;12758;47.890;11.694;2023-04-01T07:50:37;92723.28;;;7.67;100.00
24610;BME280;12758;47.890;11.694;2023-04-01T07:53:10;92729.47;;;7.68;100.00
24610;BME280;12758;47.890;11.694;2023-04-01T07:55:42;92716.84;;;7.84;100.00
24610;BME280;12758;47.890;11.694;2023-04-01T07:58:17;92733.38;;;7.83;100.00
24610;BME280;12758;47.890;11.694;2023-04-01T08:00:51;92719.78;;;7.79;100.00
24610;BME280;12758;47.890;11.694;2023-04-01T08:03:33;92718.00;;;7.83;100.00
24610;BME280;12758;47.890;11.694;2023-04-01T08:06:04;92723.59;;;7.90;100.00
24610;BME280;12758;47.890;11.694;2023-04-01T08:08:41;92711.41;;;8.09;100.00
24610;BME280;12758;47.890;11.694;2023-04-01T08:11:15;92709.63;;;8.01;100.00
24610;BME280;12758;47.890;11.694;2023-04-01T08:13:48;92722.00;;;8.02;100.00
24610;BME280;12758;47.890;11.694;2023-04-01T08:16:18;92727.63;;;8.09;100.00
24610;BME280;12758;47.890;11.694;2023-04-01T08:18:54;92711.59;;;8.40;100.00
24610;BME280;12758;47.890;11.694;2023-04-01T08:21:27;92712.50;;;8.45;100.00
24610;BME280;12758;47.890;11.694;2023-04-01T08:23:57;92712.41;;;8.69;100.00
24610;BME280;12758;47.890;11.694;2023-04-01T08:26:29;92704.34;;;8.57;100.00
24610;BME280;12758;47.890;11.694;2023-04-01T08:29:00;92710.84;;;8.68;100.00
24610;BME280;12758;47.890;11.694;2023-04-01T08:31:30;92700.91;;;8.72;100.00
24610;BME280;12758;47.890;11.694;2023-04-01T08:34:01;92705.81;;;9.26;100.00
24610;BME280;12758;47.890;11.694;2023-04-01T08:36:35;92710.44;;;9.26;100.00
24610;BME280;12758;47.890;11.694;2023-04-01T08:39:07;92696.44;;;9.08;100.00
24610;BME280;12758;47.890;11.694;2023-04-01T08:41:52;92733.78;;;8.86;100.00
24610;BME280;12758;47.890;11.694;2023-04-01T08:47:50;92722.25;;;8.61;100.00
24610;BME280;12758;47.890;11.694;2023-04-01T08:50:31;92712.22;;;8.62;100.00
24610;BME280;12758;47.890;11.694;2023-04-01T08:53:06;92705.72;;;8.51;100.00
24610;BME280;12758;47.890;11.694;2023-04-01T08:55:40;92719.78;;;8.56;100.00
24610;BME280;12758;47.890;11.694;2023-04-01T09:01:21;92696.31;;;8.89;100.00
24610;BME280;12758;47.890;11.694;2023-04-01T09:04:10;92705.22;;;8.89;100.00
24610;BME280;12758;47.890;11.694;2023-04-01T09:06:49;92700.22;;;8.75;100.00
24610;BME280;12758;47.890;11.694;2023-04-01T09:09:38;92705.00;;;8.54;100.00
24610;BME280;12758;47.890;11.694;2023-04-01T09:12:31;92702.09;;;8.59;100.00
24610;BME280;12758;47.890;11.694;2023-04-01T09:18:12;92698.84;;;8.81;100.00
24610;BME280;12758;47.890;11.694;2023-04-01T09:20:57;92701.38;;;9.18;100.00
24610;BME280;12758;47.890;11.694;2023-04-01T09:23:55;92696.47;;;9.24;100.00
24610;BME280;12758;47.890;11.694;2023-04-01T09:29:20;92686.53;;;9.44;100.00
24610;BME280;12758;47.890;11.694;2023-04-01T09:32:25;92705.66;;;9.35;100.00
24610;BME280;12758;47.890;11.694;2023-04-01T09:34:54;92693.22;;;9.34;100.00
24610;BME280;12758;47.890;11.694;2023-04-01T09:37:34;92683.72;;;9.56;100.00
24610;BME280;12758;47.890;11.694;2023-04-01T09:40:18;92687.47;;;9.67;100.00
24610;BME280;12758;47.890;11.694;2023-04-01T09:43:11;92692.97;;;9.87;100.00
24610;BME280;12758;47.890;11.694;2023-04-01T09:45:52;92677.25;;;9.45;100.00
24610;BME280;12758;47.890;11.694;2023-04-01T09:48:31;92679.50;;;9.74;98.93
24610;BME280;12758;47.890;11.694;2023-04-01T09:51:09;92670.53;;;9.70;100.00
24610;BME280;12758;47.890;11.694;2023-04-01T09:53:48;92666.06;;;9.62;100.00
24610;BME280;12758;47.890;11.694;2023-04-01T09:56:33;92672.69;;;9.80;100.00
24610;BME280;12758;47.890;11.694;2023-04-01T09:59:19;92694.44;;;10.00;95.31
24610;BME280;12758;47.890;11.694;2023-04-01T10:02:04;92677.78;;;10.01;98.22
24610;BME280;12758;47.890;11.694;2023-04-01T10:04:53;92661.22;;;9.87;94.58
24610;BME280;12758;47.890;11.694;2023-04-01T10:10:31;92664.72;;;9.88;90.94
24610;BME280;12758;47.890;11.694;2023-04-01T10:13:30;92658.19;;;9.89;91.25
24610;BME280;12758;47.890;11.694;2023-04-01T10:16:19;92650.66;;;9.82;98.02
24610;BME280;12758;47.890;11.694;2023-04-01T10:22:04;92648.63;;;10.14;88.16
24610;BME280;12758;47.890;11.694;2023-04-01T10:24:53;92657.25;;;10.55;93.26
24610;BME280;12758;47.890;11.694;2023-04-01T10:27:53;92650.16;;;10.47;90.14
24610;BME280;12758;47.890;11.694;2023-04-01T10:31:03;92661.56;;;10.76;92.59
24610;BME280;12758;47.890;11.694;2023-04-01T10:34:04;92653.03;;;10.77;88.05
24610;BME280;12758;47.890;11.694;2023-04-01T10:36:47;92651.34;;;10.69;86.42
24610;BME280;12758;47.890;11.694;2023-04-01T10:39:38;92654.16;;;10.53;89.12
24610;BME280;12758;47.890;11.694;2023-04-01T10:42:44;92673.63;;;10.23;91.34
24610;BME280;12758;47.890;11.694;2023-04-01T10:45:47;92666.81;;;10.30;90.45
24610;BME280;12758;47.890;11.694;2023-04-01T10:48:40;92647.84;;;10.30;90.29
24610;BME280;12758;47.890;11.694;2023-04-01T10:51:16;92667.13;;;10.44;92.85
24610;BME280;12758;47.890;11.694;2023-04-01T10:53:57;92665.00;;;10.53;94.41
24610;BME280;12758;47.890;11.694;2023-04-01T10:56:40;92667.41;;;10.58;94.22
24610;BME280;12758;47.890;11.694;2023-04-01T11:02:27;92667.53;;;10.46;93.02
24610;BME280;12758;47.890;11.694;2023-04-01T11:05:27;92661.00;;;10.47;96.58
24610;BME280;12758;47.890;11.694;2023-04-01T11:08:21;92670.81;;;10.75;100.00
24610;BME280;12758;47.890;11.694;2023-04-01T11:11:17;92668.13;;;10.55;97.32
24610;BME280;12758;47.890;11.694;2023-04-01T11:14:12;92672.97;;;10.46;96.79
24610;BME280;12758;47.890;11.694;2023-04-01T11:17:13;92677.53;;;10.61;99.65
24610;BME280;12758;47.890;11.694;2023-04-01T11:25:41;92690.16;;;9.99;98.19
24610;BME280;12758;47.890;11.694;2023-04-01T11:28:20;92680.09;;;9.99;98.80
24610;BME280;12758;47.890;11.694;2023-04-01T11:31:00;92689.16;;;10.07;100.00
24610;BME280;12758;47.890;11.694;2023-04-01T11:33:34;92680.88;;;10.00;100.00
24610;BME280;12758;47.890;11.694;2023-04-01T11:36:19;92697.22;;;9.88;100.00
24610;BME280;12758;47.890;11.694;2023-04-01T11:38:57;92693.97;;;9.98;100.00
24610;BME280;12758;47.890;11.694;2023-04-01T11:41:30;92689.59;;;10.09;100.00
24610;BME280;12758;47.890;11.694;2023-04-01T11:44:14;92695.50;;;9.95;100.00
24610;BME280;12758;47.890;11.694;2023-04-01T11:46:46;92705.53;;;9.95;100.00
24610;BME280;12758;47.890;11.694;2023-04-01T11:49:29;92698.72;;;9.69;100.00
24610;BME280;12758;47.890;11.694;2023-04-01T11:52:07;92701.19;;;9.74;100.00
24610;BME280;12758;47.890;11.694;2023-04-01T11:54:50;92711.00;;;9.63;100.00
24610;BME280;12758;47.890;11.694;2023-04-01T12:00:38;92732.44;;;9.24;100.00
24610;BME280;12758;47.890;11.694;2023-04-01T12:03:21;92741.38;;;8.97;100.00
24610;BME280;12758;47.890;11.694;2023-04-01T12:05:58;92734.84;;;8.98;100.00
24610;BME280;12758;47.890;11.694;2023-04-01T12:08:36;92754.22;;;9.00;100.00
24610;BME280;12758;47.890;11.694;2023-04-01T12:11:10;92746.81;;;8.97;100.00
24610;BME280;12758;47.890;11.694;2023-04-01T12:13:48;92760.47;;;8.88;100.00
24610;BME280;12758;47.890;11.694;2023-04-01T12:16:22;92735.53;;;8.95;100.00
24610;BME280;12758;47.890;11.694;2023-04-01T12:18:57;92744.97;;;9.01;100.00
24610;BME280;12758;47.890;11.694;2023-04-01T12:21:28;92748.47;;;9.01;100.00
24610;BME280;12758;47.890;11.694;2023-04-01T12:27:06;92748.03;;;8.71;100.00
24610;BME280;12758;47.890;11.694;2023-04-01T12:29:50;92749.41;;;8.65;100.00
24610;BME280;12758;47.890;11.694;2023-04-01T12:32:22;92751.25;;;8.49;100.00
24610;BME280;12758;47.890;11.694;2023-04-01T12:35:01;92756.41;;;8.54;100.00
24610;BME280;12758;47.890;11.694;2023-04-01T12:37:33;92766.31;;;8.62;100.00
24610;BME280;12758;47.890;11.694;2023-04-01T12:40:24;92760.28;;;8.16;100.00
24610;BME280;12758;47.890;11.694;2023-04-01T12:43:05;92766.56;;;8.32;100.00
24610;BME280;12758;47.890;11.694;2023-04-01T12:45:40;92777.50;;;7.99;100.00
24610;BME280;12758;47.890;11.694;2023-04-01T12:48:23;92777.19;;;8.13;100.00
24610;BME280;12758;47.890;11.694;2023-04-01T12:51:19;92775.59;;;7.63;100.00
24610;BME280;12758;47.890;11.694;2023-04-01T12:54:10;92764.25;;;7.94;100.00
24610;BME280;12758;47.890;11.694;2023-04-01T12:56:45;92757.38;;;7.72;100.00
24610;BME280;12758;47.890;11.694;2023-04-01T12:59:24;92760.28;;;7.67;100.00
24610;BME280;12758;47.890;11.694;2023-04-01T13:02:00;92764.13;;;7.90;100.00
24610;BME280;12758;47.890;11.694;2023-04-01T13:04:39;92757.13;;;8.02;100.00
24610;BME280;12758;47.890;11.694;2023-04-01T13:07:19;92752.19;;;8.04;100.00
24610;BME280;12758;47.890;11.694;2023-04-01T13:09:56;92740.25;;;8.05;100.00
24610;BME280;12758;47.890;11.694;2023-04-01T13:12:56;92750.38;;;8.08;100.00
24610;BME280;12758;47.890;11.694;2023-04-01T13:15:30;92741.81;;;8.18;100.00
24610;BME280;12758;47.890;11.694;2023-04-01T13:18:05;92751.06;;;8.05;100.00
24610;BME280;12758;47.890;11.694;2023-04-01T13:20:44;92748.47;;;8.08;100.00
24610;BME280;12758;47.890;11.694;2023-04-01T13:23:21;92756.91;;;8.07;100.00
24610;BME280;12758;47.890;11.694;2023-04-01T13:25:54;92761.28;;;7.99;100.00
24610;BME280;12758;47.890;11.694;2023-04-01T13:28:27;92747.94;;;7.90;100.00
24610;BME280;12758;47.890;11.694;2023-04-01T13:31:00;92752.88;;;7.88;100.00
24610;BME280;12758;47.890;11.694;2023-04-01T13:33:35;92747.56;;;8.04;100.00
24610;BME280;12758;47.890;11.694;2023-04-01T13:36:11;92748.59;;;7.87;100.00
24610;BME280;12758;47.890;11.694;2023-04-01T13:41:49;92749.03;;;8.02;100.00
24610;BME280;12758;47.890;11.694;2023-04-01T13:44:21;92760.75;;;8.06;100.00
24610;BME280;12758;47.890;11.694;2023-04-01T13:49:58;92767.84;;;7.98;100.00
24610;BME280;12758;47.890;11.694;2023-04-01T13:52:41;92761.19;;;8.08;100.00
24610;BME280;12758;47.890;11.694;2023-04-01T13:55:23;92764.56;;;8.05;100.00
24610;BME280;12758;47.890;11.694;2023-04-01T13:58:35;92769.97;;;8.05;100.00
24610;BME280;12758;47.890;11.694;2023-04-01T14:01:06;92767.84;;;8.10;100.00
24610;BME280;12758;47.890;11.694;2023-04-01T14:03:48;92766.84;;;8.03;100.00
24610;BME280;12758;47.890;11.694;2023-04-01T14:06:23;92768.63;;;8.11;100.00
24610;BME280;12758;47.890;11.694;2023-04-01T14:09:08;92760.63;;;8.02;100.00
24610;BME280;12758;47.890;11.694;2023-04-01T14:11:45;92772.03;;;7.83;100.00